Iwakuni, Japan
Current Conditions -  °F | °C
As of 5:55 AM on Wednesday 22 Oct 2014 (Local Time) from RJOI Reporting Station
Haze Haze  
Wind Chill: 69°   Ceiling: 5000
Heat Index: 69°   Visibility: 5mi
Dew Point: 64°   Wind: 5mph
Humidity: 84%   Direction: 300°WNW
Pressure: 29.79"   Gusts: NA
Location:  34.17°N, 132.23°E
Report Text: RJOI 212055Z 30004KT 8000 BR FEW030 BKN050 OVC100 21/18 A2979 RMK SLP089 T02060178 58007
Loading
Personal Weather Stations






























Interactive Weather Map
Tropical Storm Tracking
New forecast layout! Learn more

10-Day Weather Forecast

Advertisements
Track Severe Weather on mobile